Clearfield, South Dakota
Current Conditions -  °F | °C
As of 6:58 PM on Monday 22 Dec 2014 (Local Time) from KICR Reporting Station
Light Snow Light Snow  
Wind Chill: 18°   Ceiling: 700
Heat Index: 31°   Visibility: 2.5mi
Dew Point: 29°   Wind: 21mph
Humidity: 92%   Direction: 310°NW
Pressure: 29.53"   Gusts: NA
Location:  43.2923°N, 99.8934°W
Report Text: KICR 230058Z AUTO 31018KT 2 1/2SM -SN BR BKN007 OVC013 M01/M02 A2953 RMK AO2 P0000 T10061017
Loading
Personal Weather Stations






























Interactive Weather Map New forecast layout! Learn more

10-Day Weather Forecast

Advertisements
Track Severe Weather on mobile